createdAt,value
2018-03-27T00:03:32.742Z,73.40
2018-03-27T00:09:02.595Z,73.50
2018-03-27T00:14:30.983Z,73.50
2018-03-27T00:19:59.178Z,73.60
2018-03-27T00:25:27.336Z,73.70
2018-03-27T00:31:13.279Z,73.60
2018-03-27T00:36:59.378Z,73.60
2018-03-27T00:42:46.239Z,73.70
2018-03-27T00:48:14.375Z,73.70
2018-03-27T00:53:42.518Z,73.80
2018-03-27T00:59:10.759Z,73.80
2018-03-27T01:04:38.902Z,74.10
2018-03-27T01:10:07.051Z,74.10
2018-03-27T01:15:35.195Z,74.10
2018-03-27T01:21:03.352Z,74.10
2018-03-27T01:26:32.272Z,74.20
2018-03-27T01:32:00.418Z,74.20
2018-03-27T01:37:29.315Z,74.40
2018-03-27T01:42:57.455Z,74.40
2018-03-27T01:48:25.594Z,74.40
2018-03-27T01:53:54.494Z,74.50
2018-03-27T01:59:23.539Z,74.30
2018-03-27T02:04:51.666Z,74.40
2018-03-27T02:10:21.020Z,74.40
2018-03-27T02:15:55.641Z,74.50
2018-03-27T02:21:24.199Z,74.40
2018-03-27T02:26:52.340Z,74.50
2018-03-27T02:32:21.237Z,75.20
2018-03-27T02:37:49.359Z,74.50
2018-03-27T02:43:17.509Z,74.50
2018-03-27T02:48:45.661Z,74.60
2018-03-27T02:54:13.797Z,74.70
2018-03-27T02:59:42.715Z,74.70
2018-03-27T03:05:10.834Z,74.80
2018-03-27T03:10:38.965Z,74.90
2018-03-27T03:16:07.092Z,75.00
2018-03-27T03:21:35.216Z,75.10
2018-03-27T03:27:03.345Z,75.20
2018-03-27T03:32:31.499Z,75.20
2018-03-27T03:37:59.647Z,75.30
2018-03-27T03:43:28.529Z,75.20
2018-03-27T03:48:56.667Z,75.20
2018-03-27T03:54:24.807Z,75.10
2018-03-27T03:59:53.702Z,75.00
2018-03-27T04:05:21.817Z,74.90
2018-03-27T04:10:49.956Z,74.80
2018-03-27T04:16:18.099Z,74.70
2018-03-27T04:21:51.755Z,74.40
2018-03-27T04:27:20.072Z,74.40
2018-03-27T04:32:48.984Z,74.50
2018-03-27T04:38:17.141Z,74.50
2018-03-27T04:43:46.066Z,74.50
2018-03-27T04:49:14.241Z,74.60
2018-03-27T04:54:42.512Z,74.50
2018-03-27T05:00:11.431Z,75.00
2018-03-27T05:05:39.583Z,75.00
2018-03-27T05:11:07.723Z,74.90
2018-03-27T05:16:35.876Z,74.90
2018-03-27T05:22:03.996Z,75.00
2018-03-27T05:27:32.131Z,74.80
2018-03-27T05:33:00.262Z,74.80
2018-03-27T05:38:29.160Z,74.90
2018-03-27T05:43:57.276Z,74.90
2018-03-27T05:49:25.413Z,74.90
2018-03-27T05:54:53.559Z,75.00
2018-03-27T06:00:22.462Z,75.10
2018-03-27T06:05:50.987Z,75.00
2018-03-27T06:11:19.163Z,75.20
2018-03-27T06:16:47.310Z,75.10
2018-03-27T06:22:15.492Z,75.10
2018-03-27T06:27:43.693Z,75.20
2018-03-27T06:33:11.838Z,75.40
2018-03-27T06:38:39.999Z,75.30
2018-03-27T06:44:09.248Z,75.50
2018-03-27T06:49:37.391Z,75.30
2018-03-27T06:55:05.553Z,75.30
2018-03-27T07:00:33.682Z,75.30
2018-03-27T07:06:01.826Z,75.40
2018-03-27T07:11:29.965Z,75.40
2018-03-27T07:16:58.129Z,75.40
2018-03-27T07:22:26.264Z,75.50
2018-03-27T07:27:54.408Z,76.20
2018-03-27T07:33:22.556Z,75.60
2018-03-27T07:38:50.703Z,75.60
2018-03-27T07:44:18.861Z,75.90
2018-03-27T07:49:47.046Z,76.00
2018-03-27T07:55:15.197Z,76.20
2018-03-27T08:00:43.383Z,76.10
2018-03-27T08:06:11.552Z,76.00
2018-03-27T08:11:39.689Z,76.40
2018-03-27T08:17:07.834Z,76.50
2018-03-27T08:22:36.729Z,76.50
2018-03-27T08:28:04.883Z,76.50
2018-03-27T08:33:33.785Z,76.20
2018-03-27T08:39:01.937Z,76.20
2018-03-27T08:44:30.851Z,75.30
2018-03-27T08:49:59.796Z,75.40
2018-03-27T08:55:27.925Z,75.30
2018-03-27T09:00:56.816Z,75.00
2018-03-27T09:06:25.027Z,75.00
2018-03-27T09:11:53.094Z,74.20
2018-03-27T09:17:21.230Z,73.70
2018-03-27T09:22:50.132Z,71.20
2018-03-27T09:28:18.269Z,71.10
2018-03-27T09:33:46.412Z,70.70
2018-03-27T09:39:14.578Z,71.00
2018-03-27T09:44:42.772Z,71.60
2018-03-27T09:50:10.923Z,70.50
2018-03-27T09:55:39.071Z,71.10
2018-03-27T10:01:08.976Z,67.70
2018-03-27T10:06:37.126Z,67.50
2018-03-27T10:12:05.255Z,67.10
2018-03-27T10:17:33.421Z,67.60
2018-03-27T10:23:01.576Z,66.40
2018-03-27T10:28:29.730Z,66.20
2018-03-27T10:33:57.874Z,64.10
2018-03-27T10:39:25.995Z,63.00
2018-03-27T10:44:54.125Z,62.40
2018-03-27T10:50:22.270Z,60.30
2018-03-27T10:55:50.435Z,59.30
2018-03-27T11:01:19.391Z,58.60
2018-03-27T11:06:47.639Z,58.60
2018-03-27T11:12:15.812Z,56.60
2018-03-27T11:17:44.757Z,56.90
2018-03-27T11:23:12.925Z,56.90
2018-03-27T11:28:41.059Z,56.30
2018-03-27T11:34:09.208Z,56.40
2018-03-27T11:39:38.106Z,55.30
2018-03-27T11:45:06.234Z,55.20
2018-03-27T11:50:34.361Z,55.90
2018-03-27T11:56:02.476Z,54.70
2018-03-27T12:01:30.630Z,54.20
2018-03-27T12:06:59.535Z,51.70
2018-03-27T12:12:27.675Z,51.60
2018-03-27T12:17:56.573Z,51.20
2018-03-27T12:23:24.742Z,51.20
2018-03-27T12:28:53.642Z,50.60
2018-03-27T12:34:21.791Z,50.60
2018-03-27T12:39:50.738Z,49.80
2018-03-27T12:45:19.675Z,47.90
2018-03-27T12:50:48.602Z,45.80
2018-03-27T12:56:17.547Z,46.00
2018-03-27T13:01:46.508Z,42.20
2018-03-27T13:07:14.751Z,42.10
2018-03-27T13:12:42.934Z,43.90
2018-03-27T13:18:11.094Z,44.50
2018-03-27T13:23:39.271Z,44.80
2018-03-27T13:29:08.184Z,46.20
2018-03-27T13:34:36.323Z,46.20
2018-03-27T13:40:05.236Z,48.90
2018-03-27T13:45:33.380Z,48.90
2018-03-27T13:51:02.289Z,49.20
2018-03-27T13:56:30.438Z,49.20
2018-03-27T14:01:59.365Z,46.80
2018-03-27T14:07:27.527Z,46.80
2018-03-27T14:12:55.676Z,44.80
2018-03-27T14:18:23.824Z,41.60
2018-03-27T14:23:52.009Z,42.40
2018-03-27T14:29:20.182Z,46.50
2018-03-27T14:34:49.128Z,47.10
2018-03-27T14:40:17.291Z,47.10
2018-03-27T14:45:45.463Z,46.80
2018-03-27T14:51:13.642Z,46.70
2018-03-27T14:56:41.825Z,46.80
2018-03-27T15:02:10.759Z,46.10
2018-03-27T15:07:38.951Z,46.10
2018-03-27T15:13:07.859Z,45.60
2018-03-27T15:18:36.014Z,45.50
2018-03-27T15:24:04.943Z,43.10
2018-03-27T15:29:33.853Z,44.30
2018-03-27T15:35:02.003Z,44.20
2018-03-27T15:40:30.920Z,42.80
2018-03-27T15:45:59.084Z,42.80
2018-03-27T15:51:27.243Z,41.50
2018-03-27T15:56:55.414Z,42.00
2018-03-27T16:02:23.567Z,43.90
2018-03-27T16:07:51.714Z,43.60
2018-03-27T16:13:19.895Z,43.80
2018-03-27T16:18:48.055Z,44.40
2018-03-27T16:24:16.226Z,44.20
2018-03-27T16:29:44.385Z,44.70
2018-03-27T16:35:12.617Z,44.80
2018-03-27T16:40:40.755Z,45.20
2018-03-27T16:46:09.658Z,47.40
2018-03-27T16:51:37.804Z,47.40
2018-03-27T16:57:05.941Z,47.80
2018-03-27T17:02:34.890Z,48.80
2018-03-27T17:08:03.764Z,49.10
2018-03-27T17:13:31.903Z,49.10
2018-03-27T17:19:00.039Z,49.30
2018-03-27T17:24:28.943Z,49.90
2018-03-27T17:29:57.077Z,49.90
2018-03-27T17:35:25.220Z,50.30
2018-03-27T17:40:54.195Z,51.30
2018-03-27T17:46:22.338Z,51.30
2018-03-27T17:51:50.491Z,51.80
2018-03-27T17:57:18.636Z,52.20
2018-03-27T18:02:46.779Z,52.50
2018-03-27T18:08:14.974Z,52.80
2018-03-27T18:13:43.131Z,53.10
2018-03-27T18:19:11.301Z,53.30
2018-03-27T18:24:40.202Z,53.80
2018-03-27T18:30:08.355Z,53.80
2018-03-27T18:35:37.254Z,54.60
2018-03-27T18:41:05.381Z,54.60
2018-03-27T18:46:33.548Z,55.00
2018-03-27T18:52:01.686Z,55.80
2018-03-27T18:57:29.823Z,56.10
2018-03-27T19:02:58.003Z,56.50
2018-03-27T19:08:26.164Z,57.40
2018-03-27T19:13:54.294Z,57.00
2018-03-27T19:19:22.439Z,57.30
2018-03-27T19:24:51.338Z,58.50
2018-03-27T19:30:19.472Z,57.90
2018-03-27T19:35:48.401Z,58.00
2018-03-27T19:41:16.833Z,58.10
2018-03-27T19:46:45.852Z,58.40
2018-03-27T19:52:14.712Z,58.50
2018-03-27T19:57:42.877Z,58.50
2018-03-27T20:03:11.815Z,58.70
2018-03-27T20:08:40.074Z,58.70
2018-03-27T20:14:08.442Z,58.90
2018-03-27T20:19:37.334Z,59.10
2018-03-27T20:25:06.012Z,59.00
2018-03-27T20:30:34.169Z,59.20
2018-03-27T20:36:02.433Z,59.30
2018-03-27T20:41:30.587Z,59.50
2018-03-27T20:46:59.507Z,59.60
2018-03-27T20:52:28.431Z,59.50
2018-03-27T20:57:56.568Z,59.50
2018-03-27T21:03:25.626Z,59.00
2018-03-27T21:08:53.800Z,59.00
2018-03-27T21:14:26.233Z,58.80
2018-03-27T21:19:54.389Z,58.90
2018-03-27T21:25:24.082Z,58.70
2018-03-27T21:30:52.239Z,58.70
2018-03-27T21:36:24.619Z,58.90
2018-03-27T21:41:54.159Z,59.30
2018-03-27T21:47:22.379Z,59.20
2018-03-27T21:53:02.756Z,58.60
2018-03-27T21:58:33.269Z,58.60
2018-03-27T22:04:03.202Z,58.40
2018-03-27T22:09:32.257Z,58.30
2018-03-27T22:15:05.479Z,58.70
2018-03-27T22:20:33.764Z,58.60
2018-03-27T22:26:01.911Z,58.90
2018-03-27T22:31:31.079Z,59.60
2018-03-27T22:36:59.203Z,59.60
2018-03-27T22:42:27.356Z,59.90
2018-03-27T22:47:55.502Z,60.20
2018-03-27T22:53:24.419Z,61.10
2018-03-27T22:58:52.556Z,61.00
2018-03-27T23:04:21.466Z,62.20
2018-03-27T23:09:49.732Z,62.20
2018-03-27T23:15:18.562Z,62.60
2018-03-27T23:20:47.475Z,63.20
2018-03-27T23:26:19.023Z,63.10
2018-03-27T23:31:47.166Z,63.20
2018-03-27T23:37:15.375Z,63.60
2018-03-27T23:42:44.207Z,64.80
2018-03-27T23:48:12.401Z,64.20
2018-03-27T23:53:40.579Z,64.60
2018-03-27T23:59:08.718Z,64.90
